sensor_id;sensor_type;location;lat;lon;timestamp;pressure;altitude;pressure_sealevel;temperature;humidity
6194;BME280;3130;41.564;23.280;2022-08-01T00:01:26;98525.00;;;25.29;47.53
6194;BME280;3130;41.564;23.280;2022-08-01T00:03:53;98533.72;;;25.36;47.57
6194;BME280;3130;41.564;23.280;2022-08-01T00:06:20;98448.97;;;24.80;47.30
6194;BME280;3130;41.564;23.280;2022-08-01T00:08:47;98496.53;;;25.05;47.20
6194;BME280;3130;41.564;23.280;2022-08-01T00:11:16;98533.91;;;25.34;47.09
6194;BME280;3130;41.564;23.280;2022-08-01T00:13:43;98465.53;;;24.87;46.51
6194;BME280;3130;41.564;23.280;2022-08-01T00:16:10;98538.72;;;25.31;46.56
6194;BME280;3130;41.564;23.280;2022-08-01T00:18:38;98533.63;;;25.23;46.81
6194;BME280;3130;41.564;23.280;2022-08-01T00:21:05;98497.69;;;24.96;46.94
6194;BME280;3130;41.564;23.280;2022-08-01T00:23:32;98543.72;;;25.19;46.93
6194;BME280;3130;41.564;23.280;2022-08-01T00:25:59;98538.56;;;25.11;46.96
6194;BME280;3130;41.564;23.280;2022-08-01T00:28:27;98542.03;;;25.12;46.71
6194;BME280;3130;41.564;23.280;2022-08-01T00:30:54;98535.59;;;25.14;46.85
6194;BME280;3130;41.564;23.280;2022-08-01T00:33:22;98532.31;;;25.12;46.67
6194;BME280;3130;41.564;23.280;2022-08-01T00:35:49;98534.78;;;25.14;46.63
6194;BME280;3130;41.564;23.280;2022-08-01T00:38:16;98514.66;;;25.00;46.67
6194;BME280;3130;41.564;23.280;2022-08-01T00:40:43;98548.53;;;25.16;46.54
6194;BME280;3130;41.564;23.280;2022-08-01T00:43:10;98540.56;;;25.09;46.89
6194;BME280;3130;41.564;23.280;2022-08-01T00:45:39;98517.00;;;24.88;46.72
6194;BME280;3130;41.564;23.280;2022-08-01T00:48:06;98550.25;;;25.02;47.00
6194;BME280;3130;41.564;23.280;2022-08-01T00:50:33;98474.34;;;24.52;47.00
6194;BME280;3130;41.564;23.280;2022-08-01T00:53:01;98543.69;;;24.92;47.16
6194;BME280;3130;41.564;23.280;2022-08-01T00:55:29;98549.16;;;24.97;47.30
6194;BME280;3130;41.564;23.280;2022-08-01T00:57:56;98550.78;;;24.98;47.31
6194;BME280;3130;41.564;23.280;2022-08-01T01:00:25;98538.06;;;24.95;47.26
6194;BME280;3130;41.564;23.280;2022-08-01T01:02:53;98521.78;;;24.78;47.38
6194;BME280;3130;41.564;23.280;2022-08-01T01:05:21;98541.19;;;24.84;47.66
6194;BME280;3130;41.564;23.280;2022-08-01T01:07:54;98525.41;;;24.77;47.48
6194;BME280;3130;41.564;23.280;2022-08-01T01:10:28;98541.41;;;24.82;47.88
6194;BME280;3130;41.564;23.280;2022-08-01T01:13:02;98536.31;;;24.81;47.67
6194;BME280;3130;41.564;23.280;2022-08-01T01:15:34;98541.78;;;24.79;47.68
6194;BME280;3130;41.564;23.280;2022-08-01T01:18:10;98537.16;;;24.81;47.55
6194;BME280;3130;41.564;23.280;2022-08-01T01:20:41;98526.56;;;24.68;47.63
6194;BME280;3130;41.564;23.280;2022-08-01T01:23:33;98494.47;;;24.46;47.72
6194;BME280;3130;41.564;23.280;2022-08-01T01:26:20;98527.06;;;24.57;48.12
6194;BME280;3130;41.564;23.280;2022-08-01T01:28:58;98511.66;;;24.48;48.34
6194;BME280;3130;41.564;23.280;2022-08-01T01:31:28;98532.72;;;24.61;48.22
6194;BME280;3130;41.564;23.280;2022-08-01T01:33:58;98520.56;;;24.53;47.92
6194;BME280;3130;41.564;23.280;2022-08-01T01:36:26;98517.50;;;24.50;47.93
6194;BME280;3130;41.564;23.280;2022-08-01T01:38:56;98518.75;;;24.54;48.15
6194;BME280;3130;41.564;23.280;2022-08-01T01:41:24;98522.00;;;24.56;47.96
6194;BME280;3130;41.564;23.280;2022-08-01T01:43:52;98522.63;;;24.58;47.92
6194;BME280;3130;41.564;23.280;2022-08-01T01:46:24;98521.56;;;24.52;48.12
6194;BME280;3130;41.564;23.280;2022-08-01T01:48:54;98418.72;;;23.73;48.52
6194;BME280;3130;41.564;23.280;2022-08-01T01:51:25;98522.41;;;24.39;48.54
6194;BME280;3130;41.564;23.280;2022-08-01T01:53:54;98530.75;;;24.42;48.66
6194;BME280;3130;41.564;23.280;2022-08-01T01:56:22;98530.34;;;24.45;48.23
6194;BME280;3130;41.564;23.280;2022-08-01T01:58:53;98528.72;;;24.44;48.07
6194;BME280;3130;41.564;23.280;2022-08-01T02:01:25;98528.50;;;24.39;47.88
6194;BME280;3130;41.564;23.280;2022-08-01T02:03:55;98528.50;;;24.39;47.88
6194;BME280;3130;41.564;23.280;2022-08-01T02:06:23;98527.50;;;24.40;47.67
6194;BME280;3130;41.564;23.280;2022-08-01T02:08:53;98502.75;;;24.28;47.87
6194;BME280;3130;41.564;23.280;2022-08-01T02:11:21;98501.13;;;24.27;48.02
6194;BME280;3130;41.564;23.280;2022-08-01T02:13:53;98516.38;;;24.38;47.45
6194;BME280;3130;41.564;23.280;2022-08-01T02:16:25;98523.97;;;24.33;47.62
6194;BME280;3130;41.564;23.280;2022-08-01T02:18:53;98522.72;;;24.29;47.78
6194;BME280;3130;41.564;23.280;2022-08-01T02:21:29;98473.44;;;23.97;47.43
6194;BME280;3130;41.564;23.280;2022-08-01T02:24:01;98490.34;;;24.16;47.57
6194;BME280;3130;41.564;23.280;2022-08-01T02:26:30;98528.84;;;24.36;47.62
6194;BME280;3130;41.564;23.280;2022-08-01T02:29:02;98530.13;;;24.40;47.55
6194;BME280;3130;41.564;23.280;2022-08-01T02:31:38;98435.44;;;23.87;47.61
6194;BME280;3130;41.564;23.280;2022-08-01T02:34:09;98521.56;;;24.32;47.80
6194;BME280;3130;41.564;23.280;2022-08-01T02:36:38;98527.97;;;24.29;48.09
6194;BME280;3130;41.564;23.280;2022-08-01T02:39:08;98511.84;;;24.11;48.38
6194;BME280;3130;41.564;23.280;2022-08-01T02:41:39;98522.72;;;24.08;48.81
6194;BME280;3130;41.564;23.280;2022-08-01T02:44:10;98519.78;;;23.97;49.01
6194;BME280;3130;41.564;23.280;2022-08-01T02:46:45;98518.88;;;23.90;49.51
6194;BME280;3130;41.564;23.280;2022-08-01T02:49:14;98511.41;;;23.87;49.75
6194;BME280;3130;41.564;23.280;2022-08-01T02:51:46;98525.81;;;23.97;49.79
6194;BME280;3130;41.564;23.280;2022-08-01T02:54:15;98536.78;;;23.86;50.00
6194;BME280;3130;41.564;23.280;2022-08-01T02:56:44;98459.56;;;23.33;49.99
6194;BME280;3130;41.564;23.280;2022-08-01T02:59:18;98544.19;;;23.68;50.37
6194;BME280;3130;41.564;23.280;2022-08-01T03:01:47;98549.16;;;23.63;50.55
6194;BME280;3130;41.564;23.280;2022-08-01T03:04:16;98544.47;;;23.59;50.73
6194;BME280;3130;41.564;23.280;2022-08-01T03:06:45;98471.72;;;23.11;51.27
6194;BME280;3130;41.564;23.280;2022-08-01T03:09:14;98556.75;;;23.58;51.15
6194;BME280;3130;41.564;23.280;2022-08-01T03:11:43;98557.66;;;23.65;50.66
6194;BME280;3130;41.564;23.280;2022-08-01T03:14:11;98546.91;;;23.60;50.76
6194;BME280;3130;41.564;23.280;2022-08-01T03:16:41;98558.38;;;23.59;51.27
6194;BME280;3130;41.564;23.280;2022-08-01T03:19:12;98555.78;;;23.45;51.58
6194;BME280;3130;41.564;23.280;2022-08-01T03:21:41;98561.25;;;23.50;51.82
6194;BME280;3130;41.564;23.280;2022-08-01T03:24:11;98562.00;;;23.44;52.54
6194;BME280;3130;41.564;23.280;2022-08-01T03:26:40;98547.72;;;23.32;52.09
6194;BME280;3130;41.564;23.280;2022-08-01T03:29:12;98563.97;;;23.28;52.59
6194;BME280;3130;41.564;23.280;2022-08-01T03:31:43;98549.31;;;23.04;53.38
6194;BME280;3130;41.564;23.280;2022-08-01T03:34:13;98563.06;;;23.06;53.69
6194;BME280;3130;41.564;23.280;2022-08-01T03:36:46;98561.09;;;23.00;54.06
6194;BME280;3130;41.564;23.280;2022-08-01T03:39:14;98475.84;;;22.40;54.22
6194;BME280;3130;41.564;23.280;2022-08-01T03:41:50;98555.03;;;22.85;54.73
6194;BME280;3130;41.564;23.280;2022-08-01T03:44:22;98566.72;;;22.75;54.70
6194;BME280;3130;41.564;23.280;2022-08-01T03:46:56;98544.03;;;22.53;55.22
6194;BME280;3130;41.564;23.280;2022-08-01T03:49:30;98571.25;;;22.58;55.65
6194;BME280;3130;41.564;23.280;2022-08-01T03:51:59;98569.66;;;22.57;55.67
6194;BME280;3130;41.564;23.280;2022-08-01T03:54:31;98574.72;;;22.37;56.67
6194;BME280;3130;41.564;23.280;2022-08-01T03:57:00;98569.13;;;22.40;57.02
6194;BME280;3130;41.564;23.280;2022-08-01T03:59:29;98561.72;;;22.21;57.42
6194;BME280;3130;41.564;23.280;2022-08-01T04:01:57;98571.13;;;22.30;57.59
6194;BME280;3130;41.564;23.280;2022-08-01T04:04:26;98574.38;;;22.32;57.49
6194;BME280;3130;41.564;23.280;2022-08-01T04:06:55;98557.59;;;22.26;57.07
6194;BME280;3130;41.564;23.280;2022-08-01T04:09:22;98553.81;;;22.29;57.07
6194;BME280;3130;41.564;23.280;2022-08-01T04:11:49;98546.84;;;22.21;57.53
6194;BME280;3130;41.564;23.280;2022-08-01T04:14:16;98576.97;;;22.40;57.34
6194;BME280;3130;41.564;23.280;2022-08-01T04:16:43;98482.63;;;21.82;56.47
6194;BME280;3130;41.564;23.280;2022-08-01T04:19:10;98491.97;;;21.76;56.97
6194;BME280;3130;41.564;23.280;2022-08-01T04:21:39;98575.88;;;22.26;57.37
6194;BME280;3130;41.564;23.280;2022-08-01T04:24:10;98512.97;;;21.83;57.86
6194;BME280;3130;41.564;23.280;2022-08-01T04:26:40;98586.50;;;22.25;57.61
6194;BME280;3130;41.564;23.280;2022-08-01T04:29:09;98515.47;;;21.76;57.72
6194;BME280;3130;41.564;23.280;2022-08-01T04:31:39;98587.84;;;22.21;57.71
6194;BME280;3130;41.564;23.280;2022-08-01T04:34:10;98593.19;;;22.27;58.10
6194;BME280;3130;41.564;23.280;2022-08-01T04:36:40;98590.91;;;22.24;57.79
6194;BME280;3130;41.564;23.280;2022-08-01T04:39:08;98587.13;;;22.27;57.73
6194;BME280;3130;41.564;23.280;2022-08-01T04:41:36;98588.31;;;22.24;57.64
6194;BME280;3130;41.564;23.280;2022-08-01T04:44:05;98592.03;;;22.30;57.64
6194;BME280;3130;41.564;23.280;2022-08-01T04:46:33;98581.25;;;22.25;57.79
6194;BME280;3130;41.564;23.280;2022-08-01T04:49:02;98512.97;;;21.83;57.81
6194;BME280;3130;41.564;23.280;2022-08-01T04:51:32;98516.63;;;21.96;57.54
6194;BME280;3130;41.564;23.280;2022-08-01T04:54:01;98585.91;;;22.45;57.00
6194;BME280;3130;41.564;23.280;2022-08-01T04:56:28;98565.00;;;22.45;56.89
6194;BME280;3130;41.564;23.280;2022-08-01T04:58:55;98594.16;;;22.79;55.62
6194;BME280;3130;41.564;23.280;2022-08-01T05:01:36;98529.41;;;22.44;55.62
6194;BME280;3130;41.564;23.280;2022-08-01T05:04:03;98603.78;;;23.01;54.11
6194;BME280;3130;41.564;23.280;2022-08-01T05:06:30;98588.25;;;22.99;54.41
6194;BME280;3130;41.564;23.280;2022-08-01T05:08:57;98607.09;;;23.17;54.12
6194;BME280;3130;41.564;23.280;2022-08-01T05:11:26;98608.25;;;23.29;52.79
6194;BME280;3130;41.564;23.280;2022-08-01T05:13:53;98605.59;;;23.37;51.79
6194;BME280;3130;41.564;23.280;2022-08-01T05:16:20;98518.06;;;22.88;51.01
6194;BME280;3130;41.564;23.280;2022-08-01T05:18:47;98590.31;;;23.41;50.86
6194;BME280;3130;41.564;23.280;2022-08-01T05:21:14;98609.00;;;23.52;51.02
6194;BME280;3130;41.564;23.280;2022-08-01T05:23:42;98607.66;;;23.56;50.48
6194;BME280;3130;41.564;23.280;2022-08-01T05:26:09;98606.69;;;23.57;50.38
6194;BME280;3130;41.564;23.280;2022-08-01T05:28:38;98579.66;;;23.56;50.49
6194;BME280;3130;41.564;23.280;2022-08-01T05:31:05;98611.00;;;23.64;50.75
6194;BME280;3130;41.564;23.280;2022-08-01T05:33:32;98601.44;;;23.71;51.18
6194;BME280;3130;41.564;23.280;2022-08-01T05:35:59;98599.03;;;23.84;50.77
6194;BME280;3130;41.564;23.280;2022-08-01T05:38:26;98592.03;;;23.91;50.49
6194;BME280;3130;41.564;23.280;2022-08-01T05:40:53;98605.66;;;24.16;49.11
6194;BME280;3130;41.564;23.280;2022-08-01T05:43:20;98605.09;;;24.20;48.54
6194;BME280;3130;41.564;23.280;2022-08-01T05:45:49;98602.91;;;24.24;47.49
6194;BME280;3130;41.564;23.280;2022-08-01T05:48:16;98600.19;;;24.32;46.96
6194;BME280;3130;41.564;23.280;2022-08-01T05:50:43;98599.81;;;24.35;46.29
6194;BME280;3130;41.564;23.280;2022-08-01T05:53:10;98596.59;;;24.33;46.37
6194;BME280;3130;41.564;23.280;2022-08-01T05:55:37;98605.25;;;24.33;46.81
6194;BME280;3130;41.564;23.280;2022-08-01T05:58:05;98594.81;;;24.40;46.38
6194;BME280;3130;41.564;23.280;2022-08-01T06:00:32;98595.09;;;24.45;46.60
6194;BME280;3130;41.564;23.280;2022-08-01T06:03:00;98576.41;;;24.48;46.10
6194;BME280;3130;41.564;23.280;2022-08-01T06:05:27;98576.47;;;24.54;44.38
6194;BME280;3130;41.564;23.280;2022-08-01T06:07:54;98589.00;;;24.79;43.81
6194;BME280;3130;41.564;23.280;2022-08-01T06:10:21;98580.19;;;24.87;42.43
6194;BME280;3130;41.564;23.280;2022-08-01T06:12:48;98580.22;;;24.93;42.02
6194;BME280;3130;41.564;23.280;2022-08-01T06:15:15;98527.00;;;24.72;40.90
6194;BME280;3130;41.564;23.280;2022-08-01T06:17:42;98585.09;;;25.17;40.01
6194;BME280;3130;41.564;23.280;2022-08-01T06:20:11;98581.75;;;25.30;39.84
6194;BME280;3130;41.564;23.280;2022-08-01T06:22:38;98573.63;;;25.52;39.45
6194;BME280;3130;41.564;23.280;2022-08-01T06:25:07;98572.81;;;25.58;39.49
6194;BME280;3130;41.564;23.280;2022-08-01T06:27:34;98573.28;;;25.68;39.77
6194;BME280;3130;41.564;23.280;2022-08-01T06:30:02;98518.59;;;25.44;38.45
6194;BME280;3130;41.564;23.280;2022-08-01T06:32:29;98535.47;;;25.62;36.96
6194;BME280;3130;41.564;23.280;2022-08-01T06:34:56;98570.38;;;25.90;37.26
6194;BME280;3130;41.564;23.280;2022-08-01T06:37:28;98566.22;;;26.09;36.70
6194;BME280;3130;41.564;23.280;2022-08-01T06:39:56;98541.13;;;26.13;36.01
6194;BME280;3130;41.564;23.280;2022-08-01T06:42:23;98569.13;;;26.40;35.59
6194;BME280;3130;41.564;23.280;2022-08-01T06:44:50;98520.31;;;26.11;35.20
6194;BME280;3130;41.564;23.280;2022-08-01T06:47:17;98566.31;;;26.48;34.66
6194;BME280;3130;41.564;23.280;2022-08-01T06:49:44;98547.34;;;26.52;34.44
6194;BME280;3130;41.564;23.280;2022-08-01T06:52:12;98552.59;;;26.65;34.60
6194;BME280;3130;41.564;23.280;2022-08-01T06:54:40;98556.66;;;26.93;34.46
6194;BME280;3130;41.564;23.280;2022-08-01T06:57:07;98559.28;;;26.93;33.45
6194;BME280;3130;41.564;23.280;2022-08-01T06:59:34;98558.69;;;27.04;33.41
6194;BME280;3130;41.564;23.280;2022-08-01T07:02:02;98559.69;;;27.10;32.78
6194;BME280;3130;41.564;23.280;2022-08-01T07:04:29;98556.25;;;27.16;32.98
6194;BME280;3130;41.564;23.280;2022-08-01T07:06:56;98555.84;;;27.19;32.72
6194;BME280;3130;41.564;23.280;2022-08-01T07:09:23;98555.25;;;27.17;32.85
6194;BME280;3130;41.564;23.280;2022-08-01T07:11:52;98541.06;;;27.24;32.70
6194;BME280;3130;41.564;23.280;2022-08-01T07:14:20;98549.75;;;27.31;32.77
6194;BME280;3130;41.564;23.280;2022-08-01T07:16:47;98546.50;;;27.36;32.39
6194;BME280;3130;41.564;23.280;2022-08-01T07:19:15;98547.44;;;27.54;32.68
6194;BME280;3130;41.564;23.280;2022-08-01T07:21:42;98543.59;;;27.69;32.79
6194;BME280;3130;41.564;23.280;2022-08-01T07:24:10;98547.97;;;27.88;33.09
6194;BME280;3130;41.564;23.280;2022-08-01T07:26:38;98532.06;;;28.08;31.98
6194;BME280;3130;41.564;23.280;2022-08-01T07:29:07;98520.22;;;27.79;31.75
6194;BME280;3130;41.564;23.280;2022-08-01T07:31:34;98541.75;;;28.14;31.79
6194;BME280;3130;41.564;23.280;2022-08-01T07:34:01;98537.25;;;28.27;30.85
6194;BME280;3130;41.564;23.280;2022-08-01T07:36:28;98536.75;;;28.43;31.15
6194;BME280;3130;41.564;23.280;2022-08-01T07:38:55;98504.59;;;28.28;30.75
6194;BME280;3130;41.564;23.280;2022-08-01T07:41:23;98538.75;;;28.48;30.68
6194;BME280;3130;41.564;23.280;2022-08-01T07:43:50;98518.81;;;28.52;30.48
6194;BME280;3130;41.564;23.280;2022-08-01T07:46:18;98514.88;;;28.61;30.71
6194;BME280;3130;41.564;23.280;2022-08-01T07:48:46;98524.38;;;28.68;30.38
6194;BME280;3130;41.564;23.280;2022-08-01T07:51:13;98518.41;;;28.79;30.33
6194;BME280;3130;41.564;23.280;2022-08-01T07:53:40;98524.38;;;28.92;30.17
6194;BME280;3130;41.564;23.280;2022-08-01T07:56:07;98505.91;;;28.92;29.66
6194;BME280;3130;41.564;23.280;2022-08-01T07:58:35;98527.47;;;29.14;29.77
6194;BME280;3130;41.564;23.280;2022-08-01T08:01:02;98522.88;;;29.45;29.20
6194;BME280;3130;41.564;23.280;2022-08-01T08:03:30;98435.00;;;29.32;28.84
6194;BME280;3130;41.564;23.280;2022-08-01T08:05:58;98490.16;;;29.76;28.18
6194;BME280;3130;41.564;23.280;2022-08-01T08:08:25;98524.91;;;30.26;27.99
6194;BME280;3130;41.564;23.280;2022-08-01T08:10:53;98513.72;;;30.24;27.86
6194;BME280;3130;41.564;23.280;2022-08-01T08:13:20;98507.84;;;30.22;27.96
6194;BME280;3130;41.564;23.280;2022-08-01T08:15:47;98505.84;;;30.47;27.60
6194;BME280;3130;41.564;23.280;2022-08-01T08:18:14;98511.78;;;30.20;27.92
6194;BME280;3130;41.564;23.280;2022-08-01T08:20:43;98499.44;;;29.84;27.89
6194;BME280;3130;41.564;23.280;2022-08-01T08:23:11;98498.63;;;29.66;28.57
6194;BME280;3130;41.564;23.280;2022-08-01T08:25:55;98492.88;;;29.33;28.92
6194;BME280;3130;41.564;23.280;2022-08-01T08:28:22;98423.94;;;28.81;29.06
6194;BME280;3130;41.564;23.280;2022-08-01T08:30:49;98497.59;;;29.31;29.50
6194;BME280;3130;41.564;23.280;2022-08-01T08:33:18;98479.75;;;29.27;30.01
6194;BME280;3130;41.564;23.280;2022-08-01T08:35:47;98459.41;;;29.09;28.91
6194;BME280;3130;41.564;23.280;2022-08-01T08:38:14;98483.25;;;29.21;29.54
6194;BME280;3130;41.564;23.280;2022-08-01T08:40:41;98465.06;;;29.13;28.41
6194;BME280;3130;41.564;23.280;2022-08-01T08:43:09;98471.00;;;29.26;28.70
6194;BME280;3130;41.564;23.280;2022-08-01T08:45:36;98472.69;;;29.21;28.77
6194;BME280;3130;41.564;23.280;2022-08-01T08:48:05;98485.28;;;29.25;28.79
6194;BME280;3130;41.564;23.280;2022-08-01T08:50:33;98484.88;;;29.22;28.71
6194;BME280;3130;41.564;23.280;2022-08-01T08:53:02;98480.00;;;29.25;28.59
6194;BME280;3130;41.564;23.280;2022-08-01T08:55:30;98466.53;;;29.27;28.66
6194;BME280;3130;41.564;23.280;2022-08-01T08:57:57;98479.44;;;29.41;28.35
6194;BME280;3130;41.564;23.280;2022-08-01T09:00:26;98470.69;;;29.41;28.06
6194;BME280;3130;41.564;23.280;2022-08-01T09:02:53;98470.00;;;29.45;27.25
6194;BME280;3130;41.564;23.280;2022-08-01T09:05:23;98486.97;;;29.56;27.28
6194;BME280;3130;41.564;23.280;2022-08-01T09:07:52;98475.84;;;29.65;27.29
6194;BME280;3130;41.564;23.280;2022-08-01T09:10:20;98462.69;;;29.77;27.51
6194;BME280;3130;41.564;23.280;2022-08-01T09:13:08;98461.53;;;29.73;26.53
6194;BME280;3130;41.564;23.280;2022-08-01T09:15:41;98458.50;;;29.87;27.65
6194;BME280;3130;41.564;23.280;2022-08-01T09:18:25;98444.38;;;29.93;26.58
6194;BME280;3130;41.564;23.280;2022-08-01T09:21:07;98465.03;;;30.14;26.18
6194;BME280;3130;41.564;23.280;2022-08-01T09:23:36;98461.47;;;30.08;26.23
6194;BME280;3130;41.564;23.280;2022-08-01T09:26:06;98423.63;;;29.78;26.52
6194;BME280;3130;41.564;23.280;2022-08-01T09:28:34;98453.47;;;29.97;26.59
6194;BME280;3130;41.564;23.280;2022-08-01T09:31:06;98461.22;;;29.80;26.44
6194;BME280;3130;41.564;23.280;2022-08-01T09:33:51;98427.81;;;29.68;26.63
6194;BME280;3130;41.564;23.280;2022-08-01T09:36:25;98411.81;;;29.52;26.69
6194;BME280;3130;41.564;23.280;2022-08-01T09:38:54;98378.09;;;29.29;27.89
6194;BME280;3130;41.564;23.280;2022-08-01T09:41:34;98438.16;;;29.70;26.65
6194;BME280;3130;41.564;23.280;2022-08-01T09:44:02;98407.13;;;29.65;26.81
6194;BME280;3130;41.564;23.280;2022-08-01T09:46:34;98341.75;;;29.43;27.45
6194;BME280;3130;41.564;23.280;2022-08-01T09:49:04;98370.59;;;29.74;27.30
6194;BME280;3130;41.564;23.280;2022-08-01T09:51:36;98386.69;;;29.25;27.76
6194;BME280;3130;41.564;23.280;2022-08-01T09:54:05;98379.19;;;29.22;28.33
6194;BME280;3130;41.564;23.280;2022-08-01T09:56:39;98437.81;;;29.66;28.02
6194;BME280;3130;41.564;23.280;2022-08-01T09:59:08;98422.53;;;29.68;27.92
6194;BME280;3130;41.564;23.280;2022-08-01T10:01:43;98403.56;;;29.42;27.67
6194;BME280;3130;41.564;23.280;2022-08-01T10:04:13;98422.81;;;29.49;28.39
6194;BME280;3130;41.564;23.280;2022-08-01T10:06:41;98417.19;;;29.57;28.21
6194;BME280;3130;41.564;23.280;2022-08-01T10:09:11;98356.78;;;29.13;27.03
6194;BME280;3130;41.564;23.280;2022-08-01T10:11:40;98413.09;;;29.61;26.92
6194;BME280;3130;41.564;23.280;2022-08-01T10:14:08;98403.78;;;29.70;28.06
6194;BME280;3130;41.564;23.280;2022-08-01T10:16:38;98406.38;;;29.87;26.86
6194;BME280;3130;41.564;23.280;2022-08-01T10:19:06;98411.38;;;29.95;27.00
6194;BME280;3130;41.564;23.280;2022-08-01T10:21:34;98384.31;;;29.93;27.22
6194;BME280;3130;41.564;23.280;2022-08-01T10:24:05;98346.44;;;29.70;27.09
6194;BME280;3130;41.564;23.280;2022-08-01T10:26:33;98411.78;;;30.22;27.14
6194;BME280;3130;41.564;23.280;2022-08-01T10:29:04;98367.97;;;30.14;26.20
6194;BME280;3130;41.564;23.280;2022-08-01T10:31:32;98389.38;;;30.13;25.79
6194;BME280;3130;41.564;23.280;2022-08-01T10:34:00;98415.59;;;30.26;25.42
6194;BME280;3130;41.564;23.280;2022-08-01T10:36:28;98373.13;;;30.09;26.21
6194;BME280;3130;41.564;23.280;2022-08-01T10:38:57;98362.75;;;29.96;25.83
6194;BME280;3130;41.564;23.280;2022-08-01T10:41:25;98402.00;;;30.22;26.25
6194;BME280;3130;41.564;23.280;2022-08-01T10:43:55;98382.81;;;30.27;26.39
6194;BME280;3130;41.564;23.280;2022-08-01T10:46:34;98390.56;;;30.51;25.75
6194;BME280;3130;41.564;23.280;2022-08-01T10:49:08;98377.63;;;30.43;26.05
6194;BME280;3130;41.564;23.280;2022-08-01T10:51:38;98393.06;;;30.46;26.52
6194;BME280;3130;41.564;23.280;2022-08-01T10:54:06;98379.72;;;30.53;26.28
6194;BME280;3130;41.564;23.280;2022-08-01T10:56:39;98381.56;;;30.41;26.07
6194;BME280;3130;41.564;23.280;2022-08-01T10:59:06;98372.22;;;30.27;26.39
6194;BME280;3130;41.564;23.280;2022-08-01T11:01:35;98321.03;;;30.10;26.64
6194;BME280;3130;41.564;23.280;2022-08-01T11:04:08;98378.34;;;30.73;25.32
6194;BME280;3130;41.564;23.280;2022-08-01T11:06:41;98372.56;;;30.87;24.88
6194;BME280;3130;41.564;23.280;2022-08-01T11:09:24;98361.88;;;30.83;25.18
6194;BME280;3130;41.564;23.280;2022-08-01T11:12:04;98320.00;;;30.57;25.58
6194;BME280;3130;41.564;23.280;2022-08-01T11:15:16;98340.69;;;30.83;25.08
6194;BME280;3130;41.564;23.280;2022-08-01T11:17:33;98361.13;;;31.10;25.01
6194;BME280;3130;41.564;23.280;2022-08-01T11:20:05;98363.00;;;31.09;24.88
6194;BME280;3130;41.564;23.280;2022-08-01T11:22:33;98345.00;;;31.11;25.17
6194;BME280;3130;41.564;23.280;2022-08-01T11:25:21;98250.59;;;30.55;25.52
6194;BME280;3130;41.564;23.280;2022-08-01T11:27:48;98273.53;;;30.77;25.75
6194;BME280;3130;41.564;23.280;2022-08-01T11:30:22;98265.47;;;30.83;26.02
6194;BME280;3130;41.564;23.280;2022-08-01T11:32:53;98310.56;;;31.11;25.92
6194;BME280;3130;41.564;23.280;2022-08-01T11:35:22;98317.19;;;31.25;26.43
6194;BME280;3130;41.564;23.280;2022-08-01T11:37:51;98324.19;;;31.31;25.98
6194;BME280;3130;41.564;23.280;2022-08-01T11:40:22;98322.34;;;31.32;25.67
6194;BME280;3130;41.564;23.280;2022-08-01T11:45:48;98299.31;;;31.32;26.35
6194;BME280;3130;41.564;23.280;2022-08-01T11:48:21;98312.63;;;31.09;27.46
6194;BME280;3130;41.564;23.280;2022-08-01T11:50:49;98284.88;;;31.00;27.46
6194;BME280;3130;41.564;23.280;2022-08-01T11:53:17;98252.53;;;30.98;27.69
6194;BME280;3130;41.564;23.280;2022-08-01T11:55:46;98316.31;;;31.36;26.96
6194;BME280;3130;41.564;23.280;2022-08-01T11:58:15;98310.53;;;31.23;26.17
6194;BME280;3130;41.564;23.280;2022-08-01T12:00:50;98266.81;;;30.97;26.80
6194;BME280;3130;41.564;23.280;2022-08-01T12:03:25;98302.28;;;31.36;27.71
6194;BME280;3130;41.564;23.280;2022-08-01T12:05:53;98284.16;;;31.16;27.51
6194;BME280;3130;41.564;23.280;2022-08-01T12:08:27;98291.28;;;31.44;27.68
6194;BME280;3130;41.564;23.280;2022-08-01T12:10:55;98205.69;;;30.87;28.21
6194;BME280;3130;41.564;23.280;2022-08-01T12:13:23;98261.69;;;31.19;27.58
6194;BME280;3130;41.564;23.280;2022-08-01T12:15:51;98237.72;;;30.86;27.12
6194;BME280;3130;41.564;23.280;2022-08-01T12:18:18;98296.44;;;31.22;27.67
6194;BME280;3130;41.564;23.280;2022-08-01T12:20:46;98275.09;;;31.29;27.92
6194;BME280;3130;41.564;23.280;2022-08-01T12:23:15;98300.34;;;31.31;27.70
6194;BME280;3130;41.564;23.280;2022-08-01T12:25:43;98294.31;;;31.36;27.52
6194;BME280;3130;41.564;23.280;2022-08-01T12:28:12;98227.41;;;31.01;27.80
6194;BME280;3130;41.564;23.280;2022-08-01T12:30:40;98222.44;;;31.04;28.17
6194;BME280;3130;41.564;23.280;2022-08-01T12:33:09;98236.78;;;30.92;27.99
6194;BME280;3130;41.564;23.280;2022-08-01T12:35:41;98292.03;;;31.28;27.50
6194;BME280;3130;41.564;23.280;2022-08-01T12:38:16;98223.94;;;31.00;27.93
6194;BME280;3130;41.564;23.280;2022-08-01T12:40:47;98275.03;;;31.40;28.14
6194;BME280;3130;41.564;23.280;2022-08-01T12:43:16;98214.91;;;31.13;27.71
6194;BME280;3130;41.564;23.280;2022-08-01T12:45:45;98279.03;;;31.71;26.72
6194;BME280;3130;41.564;23.280;2022-08-01T12:48:14;98262.56;;;31.69;27.17
6194;BME280;3130;41.564;23.280;2022-08-01T12:50:44;98217.38;;;31.47;27.34
6194;BME280;3130;41.564;23.280;2022-08-01T12:53:11;98203.63;;;31.34;27.46
6194;BME280;3130;41.564;23.280;2022-08-01T12:55:45;98242.56;;;31.61;27.72
6194;BME280;3130;41.564;23.280;2022-08-01T12:58:15;98222.91;;;31.46;27.00
6194;BME280;3130;41.564;23.280;2022-08-01T13:00:45;98261.03;;;31.73;27.07
6194;BME280;3130;41.564;23.280;2022-08-01T13:03:14;98214.16;;;31.45;26.88
6194;BME280;3130;41.564;23.280;2022-08-01T13:05:43;98247.31;;;31.76;27.58
6194;BME280;3130;41.564;23.280;2022-08-01T13:08:11;98262.47;;;31.80;27.05
6194;BME280;3130;41.564;23.280;2022-08-01T13:10:39;98267.53;;;31.82;27.13
6194;BME280;3130;41.564;23.280;2022-08-01T13:13:09;98246.41;;;31.87;26.83
6194;BME280;3130;41.564;23.280;2022-08-01T13:15:37;98254.94;;;31.89;27.35
6194;BME280;3130;41.564;23.280;2022-08-01T13:18:24;98220.53;;;31.61;27.42
6194;BME280;3130;41.564;23.280;2022-08-01T13:21:07;98211.34;;;31.52;26.82
6194;BME280;3130;41.564;23.280;2022-08-01T13:23:34;98211.34;;;31.52;26.90
6194;BME280;3130;41.564;23.280;2022-08-01T13:26:02;98259.91;;;31.85;26.57